Time;durP1;ratioP1;P1;durP2;ratioP2;P2;SDS_P1;SDS_P2;PMS_P1;PMS_P2;Temp;Humidity;BMP_temperature;BMP_pressure;BME280_temperature;BME280_humidity;BME280_pressure;Samples;Min_cycle;Max_cycle;Signal;HPM_P1;HPM_P2
2023/08/23 00:01:46;;;;;;;6.00;4.90;;;14.60;99.90;;;;;;5141495;27;20062;-67
2023/08/23 00:04:12;;;;;;;4.63;3.15;;;14.60;99.90;;;;;;5138780;27;20390;-67
2023/08/23 00:06:38;;;;;;;5.50;3.95;;;14.60;99.90;;;;;;5142259;27;20543;-66
2023/08/23 00:09:06;;;;;;;8.00;4.47;;;14.60;99.90;;;;;;5140168;27;20084;-67
2023/08/23 00:11:32;;;;;;;9.55;4.47;;;14.70;99.90;;;;;;5121019;28;20066;-66
2023/08/23 00:13:58;;;;;;;7.50;4.45;;;14.70;99.90;;;;;;5143652;27;20035;-67
2023/08/23 00:16:24;;;;;;;6.55;5.03;;;14.70;99.90;;;;;;5140051;27;20092;-67
2023/08/23 00:18:50;;;;;;;7.65;5.13;;;14.70;99.90;;;;;;5142091;27;20092;-67
2023/08/23 00:21:16;;;;;;;5.40;4.47;;;14.80;99.90;;;;;;5138926;27;20576;-67
2023/08/23 00:23:42;;;;;;;7.45;5.70;;;14.80;99.90;;;;;;5120510;28;20049;-67
2023/08/23 00:26:08;;;;;;;10.88;4.95;;;14.80;99.90;;;;;;5140408;27;20156;-67
2023/08/23 00:28:33;;;;;;;5.10;3.80;;;14.80;99.90;;;;;;5139007;27;20049;-67
2023/08/23 00:30:59;;;;;;;10.88;5.55;;;14.70;99.90;;;;;;5139173;27;20043;-66
2023/08/23 00:33:24;;;;;;;90.55;9.30;;;14.60;99.90;;;;;;5140701;27;20042;-66
2023/08/23 00:35:50;;;;;;;49.65;7.78;;;14.60;99.90;;;;;;5141209;27;20039;-66
2023/08/23 00:38:16;;;;;;;20.98;6.28;;;14.50;99.90;;;;;;5141639;27;20043;-69
2023/08/23 00:40:41;;;;;;;7.85;6.35;;;14.40;99.90;;;;;;5146415;27;20042;-66
2023/08/23 00:43:07;;;;;;;8.02;6.05;;;14.40;99.90;;;;;;5146414;27;20142;-66
2023/08/23 00:45:37;;;;;;;7.97;5.43;;;14.40;99.90;;;;;;5145362;27;20043;-66
2023/08/23 00:48:03;;;;;;;8.27;5.95;;;14.50;99.90;;;;;;5145948;27;20364;-67
2023/08/23 00:50:33;;;;;;;8.80;6.35;;;14.70;99.90;;;;;;5145514;27;20091;-66
2023/08/23 00:52:59;;;;;;;7.35;5.95;;;14.50;99.90;;;;;;5142365;27;20043;-67
2023/08/23 00:55:25;;;;;;;11.50;8.13;;;14.60;99.90;;;;;;5142760;27;20039;-67
2023/08/23 00:57:52;;;;;;;9.98;5.85;;;14.70;99.90;;;;;;5151096;27;20370;-67
2023/08/23 01:00:18;;;;;;;8.93;6.00;;;14.60;99.90;;;;;;5142560;27;20378;-67
2023/08/23 01:02:44;;;;;;;15.18;5.88;;;14.60;99.90;;;;;;5143053;27;20130;-66
2023/08/23 01:05:11;;;;;;;10.85;6.47;;;14.60;99.90;;;;;;5145772;27;20130;-67
2023/08/23 01:07:39;;;;;;;14.25;6.82;;;14.50;99.90;;;;;;5139641;27;20561;-67
2023/08/23 01:10:16;;;;;;;6.28;5.50;;;14.60;99.90;;;;;;5144991;27;20108;-67
2023/08/23 01:12:48;;;;;;;7.50;5.18;;;14.40;99.90;;;;;;5145704;27;20497;-67
2023/08/23 01:15:14;;;;;;;7.68;5.47;;;14.40;99.90;;;;;;5139051;27;20043;-66
2023/08/23 01:17:42;;;;;;;6.53;4.50;;;14.30;99.90;;;;;;5127151;27;20049;-66
2023/08/23 01:20:13;;;;;;;6.65;4.50;;;14.40;99.90;;;;;;5143724;27;20083;-67
2023/08/23 01:22:50;;;;;;;6.28;4.90;;;14.40;99.90;;;;;;5128423;27;20122;-67
2023/08/23 01:25:16;;;;;;;9.15;4.50;;;14.30;99.90;;;;;;5143365;27;20043;-67
2023/08/23 01:27:42;;;;;;;10.25;5.60;;;14.30;99.90;;;;;;5142175;27;20614;-66
2023/08/23 01:30:08;;;;;;;8.95;6.60;;;14.40;99.90;;;;;;5141875;27;20175;-68
2023/08/23 01:32:55;;;;;;;10.88;6.82;;;14.50;99.90;;;;;;5144983;27;20051;-66
2023/08/23 01:35:49;;;;;;;10.02;6.40;;;14.50;99.90;;;;;;5126520;27;20494;-67
2023/08/23 01:38:16;;;;;;;14.18;5.65;;;14.50;99.90;;;;;;5143897;27;20150;-69
2023/08/23 01:40:42;;;;;;;13.60;5.63;;;14.40;99.90;;;;;;5141142;27;20070;-67
2023/08/23 01:43:08;;;;;;;6.75;5.57;;;14.40;99.90;;;;;;5148259;27;20473;-66
2023/08/23 01:45:34;;;;;;;9.40;5.82;;;14.40;99.90;;;;;;5143425;27;20046;-67
2023/08/23 01:47:59;;;;;;;10.25;5.97;;;14.30;99.90;;;;;;5141831;27;20104;-66
2023/08/23 01:50:25;;;;;;;8.25;6.00;;;14.30;99.90;;;;;;5145047;27;20724;-66
2023/08/23 01:52:51;;;;;;;7.97;5.90;;;14.30;99.90;;;;;;5141599;27;20083;-67
2023/08/23 01:55:20;;;;;;;9.80;6.40;;;14.20;99.90;;;;;;5141159;27;20485;-67
2023/08/23 01:57:46;;;;;;;10.02;7.18;;;14.20;99.90;;;;;;5143281;27;20050;-68
2023/08/23 02:00:12;;;;;;;10.20;7.40;;;14.30;99.90;;;;;;5125419;27;20042;-66
2023/08/23 02:02:38;;;;;;;11.02;7.72;;;14.40;99.90;;;;;;5145240;27;20045;-66
2023/08/23 02:05:04;;;;;;;9.32;5.97;;;14.40;99.90;;;;;;5144197;27;20405;-67
2023/08/23 02:07:30;;;;;;;8.23;6.07;;;14.40;99.90;;;;;;5144956;27;20401;-67
2023/08/23 02:09:55;;;;;;;8.45;6.63;;;14.40;99.90;;;;;;5142998;27;20099;-66
2023/08/23 02:12:21;;;;;;;8.88;6.53;;;14.40;99.90;;;;;;5137358;27;20073;-67
2023/08/23 02:14:47;;;;;;;9.50;6.05;;;14.30;99.90;;;;;;5129002;27;20779;-67
2023/08/23 02:17:12;;;;;;;6.78;5.35;;;14.40;99.90;;;;;;5141047;27;20037;-67
2023/08/23 02:19:38;;;;;;;7.75;4.78;;;14.40;99.90;;;;;;5141431;27;20035;-67
2023/08/23 02:22:04;;;;;;;6.13;4.80;;;14.40;99.90;;;;;;5146008;27;20034;-67
2023/08/23 02:24:30;;;;;;;6.15;5.07;;;14.30;99.90;;;;;;5140762;27;20138;-67
2023/08/23 02:26:55;;;;;;;16.67;6.15;;;14.30;99.90;;;;;;5123686;27;20046;-67
2023/08/23 02:29:21;;;;;;;6.78;5.25;;;14.30;99.90;;;;;;5144543;27;20046;-67
2023/08/23 02:31:46;;;;;;;10.65;5.65;;;14.30;99.90;;;;;;5144474;27;20077;-66
2023/08/23 02:34:12;;;;;;;7.65;4.85;;;14.30;99.90;;;;;;5126722;27;20094;-67
2023/08/23 02:36:38;;;;;;;12.88;6.40;;;14.30;99.90;;;;;;5122048;27;20104;-66
2023/08/23 02:39:03;;;;;;;21.88;6.20;;;14.30;99.90;;;;;;5140677;27;20642;-67
2023/08/23 02:41:29;;;;;;;8.77;6.18;;;14.30;99.90;;;;;;5140967;27;20034;-67
2023/08/23 02:43:55;;;;;;;7.55;5.32;;;14.30;99.90;;;;;;5145248;27;20487;-66
2023/08/23 02:46:21;;;;;;;7.95;5.40;;;14.40;99.90;;;;;;5142458;27;20477;-67
2023/08/23 02:48:46;;;;;;;8.07;6.30;;;14.30;99.90;;;;;;5137412;27;20050;-67
2023/08/23 02:51:12;;;;;;;9.07;6.05;;;14.30;99.90;;;;;;5143548;27;20047;-67
2023/08/23 02:53:37;;;;;;;8.07;6.70;;;14.40;99.90;;;;;;5122706;27;20043;-67
2023/08/23 02:56:03;;;;;;;9.02;6.30;;;14.40;99.90;;;;;;5143410;27;20045;-66
2023/08/23 02:58:29;;;;;;;19.80;6.72;;;14.40;99.90;;;;;;5124700;27;20042;-67
2023/08/23 03:00:54;;;;;;;7.03;5.70;;;14.40;99.90;;;;;;5142141;27;20070;-67
2023/08/23 03:03:20;;;;;;;11.57;7.25;;;14.40;99.90;;;;;;5140119;27;20071;-67
2023/08/23 03:05:57;;;;;;;7.90;6.15;;;14.50;99.90;;;;;;5148251;27;20070;-67
2023/08/23 03:08:24;;;;;;;8.48;5.57;;;14.40;99.90;;;;;;5140302;27;20035;-67
2023/08/23 03:10:50;;;;;;;9.65;6.43;;;14.40;99.90;;;;;;5140640;27;20055;-67
2023/08/23 03:13:16;;;;;;;7.80;6.15;;;14.50;99.90;;;;;;5141423;27;20048;-67
2023/08/23 03:15:42;;;;;;;17.88;6.30;;;14.50;99.90;;;;;;5140010;27;20036;-67
2023/08/23 03:18:07;;;;;;;7.18;5.75;;;14.40;99.90;;;;;;5141981;27;20401;-67
2023/08/23 03:20:33;;;;;;;12.20;6.57;;;14.40;99.90;;;;;;5143403;27;20031;-67
2023/08/23 03:22:59;;;;;;;10.43;6.80;;;14.40;99.90;;;;;;5143201;27;20042;-66
2023/08/23 03:25:25;;;;;;;7.57;5.78;;;14.40;99.90;;;;;;5122521;27;20046;-67
2023/08/23 03:27:52;;;;;;;8.57;6.28;;;14.40;99.90;;;;;;5120889;27;20062;-67
2023/08/23 03:30:21;;;;;;;7.85;6.25;;;14.40;99.90;;;;;;5141566;27;20043;-67
2023/08/23 03:32:47;;;;;;;10.50;6.43;;;14.50;99.90;;;;;;5143092;27;20091;-67
2023/08/23 03:35:13;;;;;;;8.73;6.78;;;14.40;99.90;;;;;;5143167;27;20043;-66
2023/08/23 03:37:39;;;;;;;8.60;6.65;;;14.40;99.90;;;;;;5141955;27;20042;-67
2023/08/23 03:40:05;;;;;;;8.88;6.90;;;14.40;99.90;;;;;;5143058;27;20441;-66
2023/08/23 03:42:31;;;;;;;11.50;7.32;;;14.50;99.90;;;;;;5127157;27;20069;-66
2023/08/23 03:44:56;;;;;;;10.15;7.63;;;14.50;99.90;;;;;;5120930;27;20466;-66
2023/08/23 03:47:22;;;;;;;8.80;6.45;;;14.50;99.90;;;;;;5146143;27;20111;-67
2023/08/23 03:49:48;;;;;;;10.02;6.35;;;14.50;99.90;;;;;;5139212;27;20042;-67
2023/08/23 03:52:14;;;;;;;9.50;7.32;;;14.70;99.90;;;;;;5139749;27;20047;-67
2023/08/23 03:54:40;;;;;;;8.00;6.22;;;14.60;99.90;;;;;;5140908;27;20062;-67
2023/08/23 03:57:06;;;;;;;9.05;6.40;;;14.60;99.90;;;;;;5127502;27;21584;-67
2023/08/23 03:59:32;;;;;;;7.25;5.90;;;14.60;99.90;;;;;;5143036;27;20046;-66
2023/08/23 04:01:57;;;;;;;10.38;6.38;;;14.60;99.90;;;;;;5150177;27;20046;-67
2023/08/23 04:04:23;;;;;;;7.32;6.20;;;14.60;99.90;;;;;;5142526;27;20057;-67
2023/08/23 04:06:49;;;;;;;9.05;6.72;;;14.60;99.90;;;;;;5141642;27;20042;-67
2023/08/23 04:09:14;;;;;;;9.65;6.78;;;14.60;99.90;;;;;;5137881;27;20108;-68
2023/08/23 04:11:40;;;;;;;8.20;6.28;;;14.60;99.90;;;;;;5123739;27;20099;-67
2023/08/23 04:14:06;;;;;;;8.65;6.57;;;14.60;99.90;;;;;;5116894;27;20050;-67
2023/08/23 04:16:32;;;;;;;9.93;6.45;;;14.60;99.90;;;;;;5139871;27;20043;-68
2023/08/23 04:18:58;;;;;;;9.88;6.80;;;14.70;99.90;;;;;;5147635;27;20048;-67
2023/08/23 04:21:24;;;;;;;9.95;7.82;;;14.70;99.90;;;;;;5139019;27;20043;-67
2023/08/23 04:23:51;;;;;;;9.48;7.28;;;14.70;99.90;;;;;;5139194;27;20102;-68
2023/08/23 04:26:17;;;;;;;11.52;6.93;;;14.70;99.90;;;;;;5141133;27;20039;-67
2023/08/23 04:28:42;;;;;;;10.52;7.30;;;15.00;99.90;;;;;;5142223;27;20054;-67
2023/08/23 04:31:08;;;;;;;11.20;6.50;;;14.70;99.90;;;;;;5141813;27;20392;-67
2023/08/23 04:33:36;;;;;;;10.98;7.35;;;14.70;99.90;;;;;;5147429;27;20106;-66
2023/08/23 04:36:03;;;;;;;10.95;7.70;;;14.70;99.90;;;;;;5139086;27;20426;-67
2023/08/23 04:38:28;;;;;;;11.50;8.65;;;14.70;99.90;;;;;;5140863;27;20517;-67
2023/08/23 04:41:01;;;;;;;11.43;8.18;;;14.70;99.90;;;;;;5141352;27;20031;-67
2023/08/23 04:43:28;;;;;;;11.50;7.70;;;14.70;99.90;;;;;;5139329;27;20039;-68
2023/08/23 04:45:57;;;;;;;11.13;8.45;;;14.60;99.90;;;;;;5123052;27;20052;-68
2023/08/23 04:48:23;;;;;;;11.32;8.13;;;14.70;99.90;;;;;;5142429;27;20446;-67
2023/08/23 04:50:57;;;;;;;12.68;8.88;;;14.70;99.90;;;;;;5125985;27;20521;-67
2023/08/23 04:53:26;;;;;;;12.77;8.68;;;14.70;99.90;;;;;;5138718;27;20554;-66
2023/08/23 04:55:58;;;;;;;11.88;7.90;;;14.70;99.90;;;;;;5141101;27;20043;-67
2023/08/23 04:58:27;;;;;;;11.98;9.10;;;14.70;99.90;;;;;;5138993;27;20104;-67
2023/08/23 05:00:58;;;;;;;14.45;9.52;;;14.70;99.90;;;;;;5140881;27;20046;-67
2023/08/23 05:03:27;;;;;;;16.67;9.75;;;14.70;99.90;;;;;;5138791;27;20521;-67
2023/08/23 05:05:53;;;;;;;18.98;11.13;;;14.80;99.90;;;;;;5121673;27;20058;-67
2023/08/23 05:08:18;;;;;;;19.75;12.02;;;14.80;99.90;;;;;;5141998;27;20113;-67
2023/08/23 05:10:44;;;;;;;18.13;11.40;;;14.80;99.90;;;;;;5135839;27;20051;-68
2023/08/23 05:13:10;;;;;;;17.75;11.55;;;14.80;99.90;;;;;;5123399;27;20134;-66
2023/08/23 05:15:35;;;;;;;18.75;11.48;;;14.80;99.90;;;;;;5138514;27;20046;-67
2023/08/23 05:18:01;;;;;;;16.55;12.10;;;14.90;99.90;;;;;;5146661;27;20041;-68
2023/08/23 05:20:27;;;;;;;16.10;11.45;;;14.90;99.90;;;;;;5123777;27;20050;-69
2023/08/23 05:22:52;;;;;;;22.25;14.23;;;14.90;99.90;;;;;;5138204;27;20039;-69
2023/08/23 05:25:18;;;;;;;16.92;12.13;;;14.90;99.90;;;;;;5124877;27;20447;-67
2023/08/23 05:27:43;;;;;;;20.08;12.95;;;15.00;99.90;;;;;;5145445;27;20443;-67
2023/08/23 05:30:10;;;;;;;17.02;11.48;;;15.00;99.90;;;;;;5139535;27;20084;-67
2023/08/23 05:32:35;;;;;;;17.60;13.30;;;15.00;99.90;;;;;;5142484;27;20079;-67
2023/08/23 05:35:01;;;;;;;18.85;12.20;;;15.00;99.90;;;;;;5123593;27;20420;-68
2023/08/23 05:37:26;;;;;;;18.17;13.13;;;15.00;99.90;;;;;;5125334;27;20050;-68
2023/08/23 05:39:52;;;;;;;17.67;13.02;;;15.00;99.90;;;;;;5145187;27;20636;-68
2023/08/23 05:42:18;;;;;;;15.63;12.13;;;15.00;99.90;;;;;;5144515;27;20054;-68
2023/08/23 05:44:44;;;;;;;19.17;12.70;;;15.10;99.90;;;;;;5149167;27;20043;-68
2023/08/23 05:47:09;;;;;;;16.02;12.18;;;15.00;99.90;;;;;;5141593;27;20043;-67
2023/08/23 05:49:35;;;;;;;15.15;11.73;;;15.10;99.90;;;;;;5143122;27;20047;-68
2023/08/23 05:52:01;;;;;;;16.60;12.10;;;15.10;99.90;;;;;;5145155;27;20378;-69
2023/08/23 05:54:26;;;;;;;19.98;13.90;;;15.10;99.90;;;;;;5138843;27;20042;-68
2023/08/23 05:56:52;;;;;;;17.92;12.70;;;15.10;99.90;;;;;;5144320;27;20971;-67
2023/08/23 05:59:18;;;;;;;18.55;12.75;;;15.20;99.90;;;;;;5145255;27;20090;-67
2023/08/23 06:01:43;;;;;;;16.02;13.00;;;15.20;99.90;;;;;;5126111;27;20046;-68
2023/08/23 06:04:09;;;;;;;17.95;13.65;;;15.30;99.90;;;;;;5126783;27;20077;-67
2023/08/23 06:06:34;;;;;;;18.73;13.50;;;15.30;99.90;;;;;;5141514;27;20506;-67
2023/08/23 06:09:00;;;;;;;17.60;13.07;;;15.40;99.90;;;;;;5143464;27;20040;-68
2023/08/23 06:11:26;;;;;;;17.35;14.02;;;15.50;99.90;;;;;;5143922;27;20041;-67
2023/08/23 06:13:52;;;;;;;21.00;14.90;;;15.50;99.90;;;;;;5144147;27;20043;-67
2023/08/23 06:16:17;;;;;;;19.30;14.95;;;15.60;99.90;;;;;;5125842;27;20034;-68
2023/08/23 06:18:43;;;;;;;20.50;15.32;;;15.70;99.90;;;;;;5146162;27;20043;-69
2023/08/23 06:21:09;;;;;;;20.80;14.23;;;15.80;99.90;;;;;;5142642;27;20079;-68
2023/08/23 06:23:36;;;;;;;20.83;16.17;;;15.80;99.90;;;;;;5148638;27;20116;-67
2023/08/23 06:26:03;;;;;;;18.33;14.63;;;15.90;99.90;;;;;;5146045;27;20039;-66
2023/08/23 06:28:29;;;;;;;21.25;16.33;;;16.00;99.90;;;;;;5140537;27;20397;-67
2023/08/23 06:30:56;;;;;;;19.10;15.38;;;16.10;99.90;;;;;;5141020;27;20043;-67
2023/08/23 06:33:21;;;;;;;18.60;15.00;;;16.20;99.90;;;;;;5135149;27;20570;-67
2023/08/23 06:35:47;;;;;;;22.77;15.25;;;16.30;99.90;;;;;;5147395;27;20039;-67
2023/08/23 06:38:15;;;;;;;23.70;16.90;;;16.30;99.90;;;;;;5141080;27;20494;-66
2023/08/23 06:40:42;;;;;;;20.80;15.93;;;16.40;99.90;;;;;;5123206;27;20061;-67
2023/08/23 06:43:10;;;;;;;22.15;17.05;;;16.50;99.90;;;;;;5151533;27;20043;-67
2023/08/23 06:45:35;;;;;;;23.52;18.75;;;16.60;99.90;;;;;;5141619;27;20526;-67
2023/08/23 06:48:01;;;;;;;25.38;18.92;;;16.70;99.90;;;;;;5137744;27;20050;-67
2023/08/23 06:50:27;;;;;;;23.25;17.40;;;16.80;99.90;;;;;;5124891;27;20101;-68
2023/08/23 06:52:52;;;;;;;22.73;16.75;;;16.90;99.90;;;;;;5143251;27;20041;-68
2023/08/23 06:55:19;;;;;;;23.75;17.27;;;17.00;99.90;;;;;;5129395;27;20140;-67
2023/08/23 06:57:45;;;;;;;21.23;17.45;;;17.10;99.90;;;;;;5143571;27;20379;-69
2023/08/23 07:00:12;;;;;;;23.85;16.83;;;17.20;99.90;;;;;;5143852;27;20049;-69
2023/08/23 07:02:38;;;;;;;21.15;15.85;;;17.30;99.90;;;;;;5140468;27;20787;-67
2023/08/23 07:05:04;;;;;;;20.15;15.85;;;17.30;99.90;;;;;;5143349;27;20051;-66
2023/08/23 07:07:29;;;;;;;21.25;15.10;;;17.50;99.90;;;;;;5142996;27;20051;-67
2023/08/23 07:09:55;;;;;;;18.23;13.48;;;17.60;99.90;;;;;;5141835;27;20034;-67
2023/08/23 07:12:20;;;;;;;21.10;15.93;;;17.70;99.90;;;;;;5121564;27;20076;-67
2023/08/23 07:14:49;;;;;;;18.08;14.00;;;17.80;99.90;;;;;;5121483;27;20127;-67
2023/08/23 07:17:15;;;;;;;17.67;13.07;;;17.90;99.90;;;;;;5143175;27;20046;-67
2023/08/23 07:19:40;;;;;;;16.45;12.73;;;18.00;99.90;;;;;;5143337;27;20046;-66
2023/08/23 07:22:06;;;;;;;17.45;12.95;;;18.10;99.90;;;;;;5142066;27;20042;-66
2023/08/23 07:24:32;;;;;;;19.17;13.38;;;18.20;99.90;;;;;;5140250;27;20043;-67
2023/08/23 07:26:58;;;;;;;16.35;12.88;;;18.30;99.90;;;;;;5140025;27;20039;-66
2023/08/23 07:29:23;;;;;;;20.25;12.50;;;18.40;99.90;;;;;;5142487;27;20087;-67
2023/08/23 07:31:49;;;;;;;19.20;12.75;;;18.50;99.90;;;;;;5143452;27;20078;-66
2023/08/23 07:34:15;;;;;;;16.05;12.60;;;18.60;99.90;;;;;;5142201;27;20047;-69
2023/08/23 07:36:40;;;;;;;15.68;11.40;;;18.70;99.90;;;;;;5139588;27;20127;-66
2023/08/23 07:39:06;;;;;;;15.70;11.88;;;18.80;99.90;;;;;;5139297;27;20122;-66
2023/08/23 07:41:32;;;;;;;15.85;12.07;;;19.00;99.90;;;;;;5141712;27;20054;-67
2023/08/23 07:43:57;;;;;;;15.35;12.20;;;19.10;99.90;;;;;;5142320;27;20034;-69
2023/08/23 07:46:24;;;;;;;16.38;11.63;;;19.30;99.90;;;;;;5142729;27;20046;-68
2023/08/23 07:48:49;;;;;;;13.05;10.40;;;19.40;99.90;;;;;;5141825;27;20513;-68
2023/08/23 07:51:15;;;;;;;17.45;11.45;;;19.50;99.90;;;;;;5128059;27;20051;-68
2023/08/23 07:53:43;;;;;;;18.98;11.63;;;19.50;99.90;;;;;;5122279;27;20042;-67
2023/08/23 07:56:12;;;;;;;16.42;11.73;;;19.70;99.90;;;;;;5139809;27;20169;-66
2023/08/23 07:58:38;;;;;;;18.50;12.20;;;19.80;99.90;;;;;;5141234;27;20027;-71
2023/08/23 08:01:05;;;;;;;20.23;12.43;;;20.00;99.90;;;;;;5123126;27;20051;-67
2023/08/23 08:03:30;;;;;;;15.38;10.85;;;20.20;99.90;;;;;;5140504;27;20047;-66
2023/08/23 08:05:56;;;;;;;15.65;11.07;;;20.40;99.90;;;;;;5142682;27;20057;-66
2023/08/23 08:08:22;;;;;;;14.68;10.50;;;20.50;99.90;;;;;;5148444;27;20131;-66
2023/08/23 08:10:49;;;;;;;15.68;11.15;;;20.80;99.90;;;;;;5139884;27;20039;-69
2023/08/23 08:13:14;;;;;;;16.50;11.18;;;21.00;99.90;;;;;;5142283;27;20035;-65
2023/08/23 08:15:40;;;;;;;18.67;10.23;;;21.20;99.90;;;;;;5124998;28;20393;-68
2023/08/23 08:18:06;;;;;;;11.23;10.02;;;21.40;99.90;;;;;;5141047;27;20075;-67
2023/08/23 08:20:31;;;;;;;12.98;10.13;;;21.60;99.90;;;;;;5142569;27;20083;-68
2023/08/23 08:22:57;;;;;;;19.58;11.05;;;21.80;99.90;;;;;;5142576;27;20050;-68
2023/08/23 08:25:23;;;;;;;18.52;10.95;;;22.00;99.90;;;;;;5138748;27;20035;-68
2023/08/23 08:27:50;;;;;;;14.07;10.52;;;22.10;99.90;;;;;;5139313;27;20061;-67
2023/08/23 08:30:16;;;;;;;17.90;10.93;;;22.20;99.90;;;;;;5140492;27;20096;-65
2023/08/23 08:32:42;;;;;;;12.02;9.93;;;22.20;99.90;;;;;;5142230;27;20043;-67
2023/08/23 08:35:08;;;;;;;13.48;10.27;;;22.10;99.90;;;;;;5142381;27;20031;-66
2023/08/23 08:37:33;;;;;;;14.82;10.52;;;22.20;99.90;;;;;;5139151;27;20051;-66
2023/08/23 08:39:59;;;;;;;19.17;11.40;;;22.30;99.90;;;;;;5138960;27;20145;-65
2023/08/23 08:42:25;;;;;;;16.55;10.57;;;22.60;99.90;;;;;;5140334;27;20051;-65
2023/08/23 08:44:52;;;;;;;15.32;11.38;;;22.70;99.90;;;;;;5142370;27;20041;-65
2023/08/23 08:47:17;;;;;;;14.55;10.48;;;22.70;99.90;;;;;;5142344;27;20046;-67
2023/08/23 08:49:43;;;;;;;14.70;10.80;;;22.90;99.90;;;;;;5121173;27;20442;-65
2023/08/23 08:52:12;;;;;;;15.13;11.15;;;22.90;99.90;;;;;;5138791;27;20644;-65
2023/08/23 08:54:41;;;;;;;18.77;10.63;;;23.00;99.90;;;;;;5139972;27;20039;-65
2023/08/23 08:57:08;;;;;;;13.40;10.57;;;23.20;99.90;;;;;;5141683;27;20060;-66
2023/08/23 08:59:35;;;;;;;16.00;11.60;;;23.10;99.90;;;;;;5143343;27;20117;-65
2023/08/23 09:02:03;;;;;;;14.93;10.55;;;23.10;99.90;;;;;;5142965;27;20081;-66
2023/08/23 09:04:29;;;;;;;13.57;10.27;;;23.20;99.90;;;;;;5142624;27;20627;-66
2023/08/23 09:06:55;;;;;;;13.75;10.13;;;23.30;99.90;;;;;;5126090;27;20430;-66
2023/08/23 09:09:21;;;;;;;12.88;10.60;;;23.40;99.90;;;;;;5146134;27;20053;-66
2023/08/23 09:11:47;;;;;;;18.30;11.60;;;23.50;99.90;;;;;;5145070;27;20043;-66
2023/08/23 09:14:19;;;;;;;21.90;10.93;;;23.40;99.90;;;;;;5123986;27;20054;-66
2023/08/23 09:16:46;;;;;;;13.85;10.48;;;23.40;99.90;;;;;;5142323;27;20040;-65
2023/08/23 09:19:13;;;;;;;17.83;10.52;;;23.50;99.90;;;;;;5145174;27;20047;-65
2023/08/23 09:21:46;;;;;;;17.98;9.90;;;23.50;99.90;;;;;;5145557;27;20039;-66
2023/08/23 09:24:12;;;;;;;15.63;9.73;;;23.60;99.90;;;;;;5144193;27;20050;-66
2023/08/23 09:26:38;;;;;;;14.02;10.30;;;23.80;99.90;;;;;;5141949;27;20036;-66
2023/08/23 09:29:04;;;;;;;12.77;9.40;;;23.80;99.90;;;;;;5142547;27;20058;-65
2023/08/23 09:31:30;;;;;;;15.65;9.82;;;23.70;99.90;;;;;;5127510;27;20034;-65
2023/08/23 09:33:56;;;;;;;12.85;9.55;;;23.60;99.90;;;;;;5145657;27;20556;-65
2023/08/23 09:36:27;;;;;;;12.93;9.00;;;23.80;99.90;;;;;;5143669;27;20070;-65
2023/08/23 09:38:53;;;;;;;13.90;9.85;;;23.80;99.90;;;;;;5142012;27;20115;-65
2023/08/23 09:41:20;;;;;;;12.25;9.43;;;23.90;99.90;;;;;;5142291;27;20039;-65
2023/08/23 09:43:50;;;;;;;18.05;10.98;;;24.10;99.90;;;;;;5144700;27;20046;-65
2023/08/23 09:46:18;;;;;;;19.33;10.77;;;24.30;99.90;;;;;;5145391;27;20047;-66
2023/08/23 09:48:45;;;;;;;18.02;9.98;;;24.60;99.90;;;;;;5142242;27;20494;-66
2023/08/23 09:51:12;;;;;;;15.18;8.77;;;24.60;99.90;;;;;;5123494;27;20047;-65
2023/08/23 09:53:42;;;;;;;13.13;8.63;;;24.70;99.90;;;;;;5142966;27;20047;-66
2023/08/23 09:56:08;;;;;;;15.10;8.25;;;24.60;99.90;;;;;;5126189;27;20043;-66
2023/08/23 09:58:35;;;;;;;12.00;8.35;;;24.60;99.90;;;;;;5125698;27;20095;-66
2023/08/23 10:01:02;;;;;;;12.57;7.90;;;24.70;99.90;;;;;;5141648;27;20039;-66
2023/08/23 10:03:27;;;;;;;13.23;8.40;;;24.60;99.90;;;;;;5141617;27;20090;-65
2023/08/23 10:05:53;;;;;;;12.13;7.90;;;24.40;99.90;;;;;;5143274;27;20094;-66
2023/08/23 10:08:19;;;;;;;11.35;7.70;;;24.30;99.90;;;;;;5126323;27;20058;-66
2023/08/23 10:10:49;;;;;;;10.38;7.90;;;24.20;99.90;;;;;;5125852;27;20046;-66
2023/08/23 10:13:16;;;;;;;12.18;7.50;;;24.50;99.90;;;;;;5140908;27;20100;-65
2023/08/23 10:15:41;;;;;;;12.75;7.80;;;24.90;99.90;;;;;;5141292;27;20130;-66
2023/08/23 10:18:11;;;;;;;11.43;7.00;;;25.10;99.90;;;;;;5124846;27;20134;-66
2023/08/23 10:20:37;;;;;;;10.90;7.70;;;25.30;99.90;;;;;;5144438;27;20049;-66
2023/08/23 10:23:11;;;;;;;13.85;7.45;;;25.60;99.90;;;;;;5143752;27;20496;-66
2023/08/23 10:25:37;;;;;;;10.63;6.45;;;25.50;99.90;;;;;;5141419;27;20405;-67
2023/08/23 10:28:04;;;;;;;10.93;7.10;;;25.30;99.90;;;;;;5141290;27;20699;-66
2023/08/23 10:30:30;;;;;;;13.27;8.10;;;25.60;99.90;;;;;;5144184;27;20042;-70
2023/08/23 10:33:08;;;;;;;13.68;7.53;;;25.60;99.90;;;;;;5144435;27;20043;-69
2023/08/23 10:35:35;;;;;;;12.38;8.38;;;25.90;99.90;;;;;;5140979;27;20091;-70
2023/08/23 10:38:04;;;;;;;11.13;7.57;;;25.90;99.90;;;;;;5143862;27;20506;-66
2023/08/23 10:40:31;;;;;;;10.35;6.88;;;26.00;99.90;;;;;;5149281;27;20043;-69
2023/08/23 10:42:58;;;;;;;11.80;6.93;;;26.10;99.90;;;;;;5122492;27;20082;-70
2023/08/23 10:45:24;;;;;;;8.82;5.68;;;26.30;99.90;;;;;;5122773;27;20047;-67
2023/08/23 10:47:50;;;;;;;9.80;6.10;;;26.30;99.90;;;;;;5144078;27;20043;-69
2023/08/23 10:50:17;;;;;;;8.75;5.85;;;26.20;99.90;;;;;;5143936;27;20042;-68
2023/08/23 10:52:43;;;;;;;14.98;5.03;;;26.50;99.90;;;;;;5122692;27;20035;-68
2023/08/23 10:55:09;;;;;;;12.02;5.40;;;26.50;99.90;;;;;;5140271;27;20490;-68
2023/08/23 10:57:35;;;;;;;11.32;4.90;;;26.60;99.90;;;;;;5149083;27;20042;-68
2023/08/23 11:00:02;;;;;;;7.53;4.85;;;26.80;99.90;;;;;;5143496;27;20505;-67
2023/08/23 11:02:30;;;;;;;9.95;5.20;;;26.90;99.90;;;;;;5143546;27;20046;-68
2023/08/23 11:04:56;;;;;;;10.98;5.28;;;27.00;99.90;;;;;;5122204;27;20053;-68
2023/08/23 11:07:26;;;;;;;9.27;4.72;;;27.00;99.90;;;;;;5140752;27;20043;-68
2023/08/23 11:09:52;;;;;;;8.40;4.65;;;27.00;99.90;;;;;;5141358;27;20126;-68
2023/08/23 11:12:18;;;;;;;10.35;5.05;;;27.10;99.90;;;;;;5142826;27;20573;-69
2023/08/23 11:14:43;;;;;;;9.40;4.78;;;26.80;99.90;;;;;;5144454;27;20043;-67
2023/08/23 11:17:10;;;;;;;10.27;4.85;;;26.70;99.90;;;;;;5148112;27;20042;-67
2023/08/23 11:19:37;;;;;;;10.15;4.68;;;26.50;99.90;;;;;;5139917;27;20042;-67
2023/08/23 11:22:03;;;;;;;9.70;3.50;;;26.40;99.90;;;;;;5140206;27;20892;-71
2023/08/23 11:24:30;;;;;;;8.57;3.03;;;26.50;99.90;;;;;;5146980;27;20125;-69
2023/08/23 11:26:55;;;;;;;12.10;3.22;;;26.40;99.90;;;;;;5140272;27;20038;-69
2023/08/23 11:29:22;;;;;;;9.45;2.63;;;26.70;99.90;;;;;;5142686;27;20430;-72
2023/08/23 11:31:57;;;;;;;6.78;2.50;;;26.80;99.90;;;;;;5142854;27;20046;-70
2023/08/23 11:34:22;;;;;;;6.80;2.70;;;27.00;99.90;;;;;;5124010;27;20606;-71
2023/08/23 11:36:48;;;;;;;6.95;2.38;;;27.10;99.90;;;;;;5143033;27;20080;-70
2023/08/23 11:39:15;;;;;;;8.38;2.10;;;27.20;99.90;;;;;;5124156;27;20610;-69
2023/08/23 11:41:40;;;;;;;8.93;2.10;;;27.30;99.90;;;;;;5143322;27;20039;-71
2023/08/23 11:44:07;;;;;;;6.13;1.85;;;27.20;99.90;;;;;;5143193;27;20045;-73
2023/08/23 11:46:37;;;;;;;7.28;1.83;;;27.30;99.90;;;;;;5143011;27;20079;-71
2023/08/23 11:49:04;;;;;;;5.40;1.60;;;27.30;99.90;;;;;;5142631;27;20035;-70
2023/08/23 11:51:41;;;;;;;9.45;2.25;;;27.00;99.90;;;;;;5142459;27;20054;-71
2023/08/23 11:54:08;;;;;;;8.75;2.47;;;26.70;99.90;;;;;;5139655;27;20035;-71
2023/08/23 11:56:34;;;;;;;6.60;2.55;;;26.40;99.90;;;;;;5147225;27;20043;-70
2023/08/23 11:59:00;;;;;;;5.68;2.65;;;26.10;99.90;;;;;;5139923;27;20500;-70
2023/08/23 12:01:25;;;;;;;4.60;1.98;;;25.90;99.90;;;;;;5121066;27;20058;-69
2023/08/23 12:03:51;;;;;;;7.47;2.38;;;25.60;99.90;;;;;;5141287;27;20053;-70
2023/08/23 12:06:17;;;;;;;4.90;2.17;;;25.60;99.90;;;;;;5142630;27;20050;-69
2023/08/23 12:08:42;;;;;;;5.40;2.08;;;25.50;99.90;;;;;;5142552;27;20050;-69
2023/08/23 12:11:08;;;;;;;8.07;2.10;;;25.50;99.90;;;;;;5142941;27;20083;-70
2023/08/23 12:13:35;;;;;;;6.53;2.50;;;25.20;99.90;;;;;;5142770;27;20050;-69
2023/08/23 12:16:01;;;;;;;4.88;2.00;;;25.30;99.90;;;;;;5122591;27;20043;-69
2023/08/23 12:18:26;;;;;;;4.35;2.05;;;25.50;99.90;;;;;;5124950;27;20547;-69
2023/08/23 12:20:52;;;;;;;7.28;1.88;;;25.40;99.90;;;;;;5142498;27;20078;-71
2023/08/23 12:23:18;;;;;;;4.45;1.50;;;25.50;99.90;;;;;;5139352;27;20043;-71
2023/08/23 12:25:43;;;;;;;8.25;2.38;;;25.60;99.90;;;;;;5139206;27;20043;-70
2023/08/23 12:28:09;;;;;;;4.15;1.95;;;25.30;99.90;;;;;;5146409;27;20493;-70
2023/08/23 12:30:35;;;;;;;5.80;1.95;;;25.30;99.90;;;;;;5139049;27;20092;-68
2023/08/23 12:33:00;;;;;;;4.00;1.38;;;25.60;99.90;;;;;;5139511;27;20046;-70
2023/08/23 12:35:26;;;;;;;2.88;1.05;;;25.80;99.90;;;;;;5126940;27;20057;-68